BGGH

Godthaab / Nuuk Airport

Nuuk, Greenland
METAR BGGH 191050Z 20010KT 5000 VCFG SCT003 BKN007 02/02 Q1011
Observed Flight Rules
Sep-19 @ 10:50 UTC (51 minutes ago) Instrument Flight Rules
Wind Visibility Clouds Conditions
200° at 10 knots 5,005 meters
  • Scattered at 300' AGL
  • Broken at 700' AGL
  • Area Fog
Temperatures Readings
Current 2°C / 36°F
Dewpoint 2°C / 36°F
Humidity 100%
Altimeter 29.85" Hg
Pressure 1011 hPa
Elevation 70
METAR BGGH 191050Z 20010KT 5000 VCFG SCT003 BKN007 02/02 Q1011
Observed Flight Rules
Sep-19 @ 10:50 UTC
(51 minutes ago)
IFR
Wind Visibility
200° at 10 knots 5,005 meters
Clouds
  • Scattered at 300' AGL
  • Broken at 700' AGL
Conditions
  • Area Fog
Temperature Dewpoint
2°C / 36°F 2°C / 36°F
Humidity Altimeter Pressure
100% 29.85" Hg 1011 hPa